Map

Track Data

SID SEASON NUMBER BASIN SUBBASIN NAME ISO_TIME NATURE LAT LON WMO_WIND WMO_PRES WMO_AGENCY TRACK_TYPE DIST2LAND LANDFALL IFLAG USA_AGENCY USA_ATCF_ID USA_LAT USA_LON USA_RECORD USA_STATUS USA_WIND USA_PRES USA_SSHS USA_R34_NE USA_R34_SE USA_R34_SW USA_R34_NW USA_R50_NE USA_R50_SE USA_R50_SW USA_R50_NW USA_R64_NE USA_R64_SE USA_R64_SW USA_R64_NW USA_POCI USA_ROCI USA_RMW USA_EYE TOKYO_LAT TOKYO_LON TOKYO_GRADE TOKYO_WIND TOKYO_PRES TOKYO_R50_DIR TOKYO_R50_LONG TOKYO_R50_SHORT TOKYO_R30_DIR TOKYO_R30_LONG TOKYO_R30_SHORT TOKYO_LAND CMA_LAT CMA_LON CMA_CAT CMA_WIND CMA_PRES HKO_LAT HKO_LON HKO_CAT HKO_WIND HKO_PRES NEWDELHI_LAT NEWDELHI_LON NEWDELHI_GRADE NEWDELHI_WIND NEWDELHI_PRES NEWDELHI_CI NEWDELHI_DP NEWDELHI_POCI REUNION_LAT REUNION_LON REUNION_TYPE REUNION_WIND REUNION_PRES REUNION_TNUM REUNION_CI REUNION_RMW REUNION_R34_NE REUNION_R34_SE REUNION_R34_SW REUNION_R34_NW REUNION_R50_NE REUNION_R50_SE REUNION_R50_SW REUNION_R50_NW REUNION_R64_NE REUNION_R64_SE REUNION_R64_SW REUNION_R64_NW BOM_LAT BOM_LON BOM_TYPE BOM_WIND BOM_PRES BOM_TNUM BOM_CI BOM_RMW BOM_R34_NE BOM_R34_SE BOM_R34_SW BOM_R34_NW BOM_R50_NE BOM_R50_SE BOM_R50_SW BOM_R50_NW BOM_R64_NE BOM_R64_SE BOM_R64_SW BOM_R64_NW BOM_ROCI BOM_POCI BOM_EYE BOM_POS_METHOD BOM_PRES_METHOD NADI_LAT NADI_LON NADI_CAT NADI_WIND NADI_PRES WELLINGTON_LAT WELLINGTON_LON WELLINGTON_WIND WELLINGTON_PRES DS824_LAT DS824_LON DS824_STAGE DS824_WIND DS824_PRES TD9636_LAT TD9636_LON TD9636_STAGE TD9636_WIND TD9636_PRES TD9635_LAT TD9635_LON TD9635_WIND TD9635_PRES TD9635_ROCI NEUMANN_LAT NEUMANN_LON NEUMANN_CLASS NEUMANN_WIND NEUMANN_PRES MLC_LAT MLC_LON MLC_CLASS MLC_WIND MLC_PRES USA_GUST BOM_GUST BOM_GUST_PER REUNION_GUST REUNION_GUST_PER USA_SEAHGT USA_SEARAD_NE USA_SEARAD_SE USA_SEARAD_SW USA_SEARAD_NW STORM_SPEED STORM_DIR
1947223N16119 1947 52 WP MM NOT_NAMED 1947-08-10 12:00:00 NR 16.3000 119.100 main 72 72 __________O___ -1 16.3000 119.100 1 4 310
1947223N16119 1947 52 WP MM NOT_NAMED 1947-08-10 15:00:00 NR 16.4157 118.958 main 86 86 __________P___ -1 16.4157 118.958 1 4 311
1947223N16119 1947 52 WP MM NOT_NAMED 1947-08-10 18:00:00 NR 16.5451 118.802 main 109 109 __________P___ -1 16.5451 118.802 1 4 312
1947223N16119 1947 52 WP MM NOT_NAMED 1947-08-10 21:00:00 NR 16.7020 118.621 main 135 135 __________P___ -1 16.7020 118.621 1 5 313
1947223N16119 1947 52 WP MM NOT_NAMED 1947-08-11 00:00:00 NR 16.9000 118.400 main 163 163 __________O___ -1 16.9000 118.400 1 7 313
1947223N16119 1947 52 WP MM NOT_NAMED 1947-08-11 03:00:00 NR 17.1470 118.129 main 202 202 __________P___ -1 17.1470 118.129 1 8 313
1947223N16119 1947 52 WP MM NOT_NAMED 1947-08-11 06:00:00 NR 17.4271 117.805 main 245 245 __________P___ -1 17.4271 117.805 1 9 311
1947223N16119 1947 52 WP MM NOT_NAMED 1947-08-11 09:00:00 NR 17.7186 117.429 main 299 299 __________P___ -1 17.7186 117.429 1 10 307
1947223N16119 1947 52 WP MM NOT_NAMED 1947-08-11 12:00:00 NR 18.0000 117.000 main 352 352 __________O___ -1 18.0000 117.000 1 10 303
1947223N16119 1947 52 WP MM NOT_NAMED 1947-08-11 15:00:00 NR 18.2720 116.526 main 409 409 __________P___ -1 18.2720 116.526 1 11 299
1947223N16119 1947 52 WP MM NOT_NAMED 1947-08-11 18:00:00 NR 18.5252 116.003 main 460 421 __________P___ -1 18.5252 116.003 1 11 295
1947223N16119 1947 52 WP MM NOT_NAMED 1947-08-11 21:00:00 NR 18.7407 115.454 main 421 385 __________P___ -1 18.7407 115.454 1 11 290
1947223N16119 1947 52 WP MM NOT_NAMED 1947-08-12 00:00:00 NR 18.9000 114.900 main 385 355 __________O___ -1 18.9000 114.900 1 11 285
1947223N16119 1947 52 WP MM NOT_NAMED 1947-08-12 03:00:00 NR 19.0105 114.375 main 355 309 __________P___ -1 19.0105 114.375 1 10 279
1947223N16119 1947 52 WP MM NOT_NAMED 1947-08-12 06:00:00 NR 19.0619 113.850 main 299 257 __________P___ -1 19.0619 113.850 1 10 273
1947223N16119 1947 52 WP MM NOT_NAMED 1947-08-12 09:00:00 NR 19.0574 113.325 main 247 200 __________P___ -1 19.0574 113.325 1 10 266
1947223N16119 1947 52 WP MM NOT_NAMED 1947-08-12 12:00:00 NR 19.0000 112.800 main 200 157 __________O___ -1 19.0000 112.800 1 10 260
1947223N16119 1947 52 WP MM NOT_NAMED 1947-08-12 15:00:00 NR 18.8871 112.303 main 157 130 __________P___ -1 18.8871 112.303 1 10 254
1947223N16119 1947 52 WP MM NOT_NAMED 1947-08-12 18:00:00 NR 18.7284 111.802 main 130 86 __________P___ -1 18.7284 111.802 1 10 251
1947223N16119 1947 52 WP MM NOT_NAMED 1947-08-12 21:00:00 NR 18.5556 111.275 main 86 46 __________P___ -1 18.5556 111.275 1 11 253
1947223N16119 1947 52 WP MM NOT_NAMED 1947-08-13 00:00:00 NR 18.4000 110.700 main 46 15 __________O___ -1 18.4000 110.700 1 12 257
1947223N16119 1947 52 WP MM NOT_NAMED 1947-08-13 03:00:00 NR 18.2871 110.054 main 15 0 __________P___ -1 18.2871 110.054 1 13 261
1947223N16119 1947 52 WP MM NOT_NAMED 1947-08-13 06:00:00 NR 18.1974 109.360 main 10 10 __________P___ -1 18.1974 109.360 1 14 264
1947223N16119 1947 52 WP MM NOT_NAMED 1947-08-13 09:00:00 NR 18.1338 108.635 main 45 45 __________P___ -1 18.1338 108.635 1 14 266
1947223N16119 1947 52 WP MM NOT_NAMED 1947-08-13 12:00:00 NR 18.1000 107.900 main 95 87 __________O___ -1 18.1000 107.900 1 13 270
1947223N16119 1947 52 WP MM NOT_NAMED 1947-08-13 15:00:00 NR 18.1336 107.265 main 87 23 __________P___ -1 18.1336 107.265 1 12 274
1947223N16119 1947 52 WP MM NOT_NAMED 1947-08-13 18:00:00 NR 18.1898 106.610 main 23 0 __________P___ -1 18.1898 106.610 1 13 274
1947223N16119 1947 52 WP MM NOT_NAMED 1947-08-13 21:00:00 NR 18.2264 105.875 main 0 0 __________P___ -1 18.2264 105.875 1 15 270
1947223N16119 1947 52 WP MM NOT_NAMED 1947-08-14 00:00:00 NR 18.2000 105.000 main 0 0 __________O___ -1 18.2000 105.000 1 19 263
1947223N16119 1947 52 WP MM NOT_NAMED 1947-08-14 03:00:00 NR 17.9988 103.930 main 0 0 __________P___ -1 17.9988 103.930 1 22 258
1947223N16119 1947 52 WP MM NOT_NAMED 1947-08-14 06:00:00 NR 17.7356 102.723 main 0 0 __________P___ -1 17.7356 102.723 1 24 258
1947223N16119 1947 52 WP MM NOT_NAMED 1947-08-14 09:00:00 NR 17.4793 101.430 main 0 0 __________P___ -1 17.4793 101.430 1 25 260
1947223N16119 1947 52 WP MM NOT_NAMED 1947-08-14 12:00:00 NR 17.3000 100.100 main 0 0 __________O___ -1 17.3000 100.100 1 26 265
1947223N16119 1947 52 NI BB NOT_NAMED 1947-08-14 15:00:00 NR 17.2393 98.6722 main 0 0 __________P___ -1 17.2393 98.6722 1 27 269
1947223N16119 1947 52 NI BB NOT_NAMED 1947-08-14 18:00:00 NR 17.2679 97.2353 main 0 0 __________P___ -1 17.2679 97.2353 1 26 273
1947223N16119 1947 52 NI BB NOT_NAMED 1947-08-14 21:00:00 NR 17.3868 95.9056 main 0 0 __________P___ -1 17.3868 95.9056 1 23 278
1947223N16119 1947 52 NI BB NOT_NAMED 1947-08-15 00:00:00 NR 17.6000 94.8000 main 0 0 __________O___ -1 17.6000 94.8000 1 18 287
1947223N16119 1947 52 NI BB NOT_NAMED 1947-08-15 03:00:00 NR 17.9128 94.0835 main 39 38 __________P___ -1 17.9128 94.0835 1 14 302
1947223N16119 1947 52 NI BB NOT_NAMED 1947-08-15 06:00:00 NR 18.3178 93.5900 main 64 53 __________P___ -1 18.3178 93.5900 1 12 315
1947223N16119 1947 52 NI BB NOT_NAMED 1947-08-15 09:00:00 NR 18.7642 93.2015 main 57 57 __________P___ -1 18.7642 93.2015 1 12 320
1947223N16119 1947 52 NI BB NOT_NAMED 1947-08-15 12:00:00 NR 19.2000 92.8000 main 84 84 __________O___ -1 19.2000 92.8000 1 13 310
1947223N16119 1947 52 NI BB NOT_NAMED 1947-08-15 15:00:00 NR 19.5836 92.1832 main 91 91 __________P___ -1 19.5836 92.1832 1 14 302
1947223N16119 1947 52 NI BB NOT_NAMED 1947-08-15 18:00:00 NR 19.9408 91.5361 main 129 122 __________P___ -1 19.9408 91.5361 1 14 299
1947223N16119 1947 52 NI BB NOT_NAMED 1947-08-15 21:00:00 NR 20.2524 90.8958 main 160 145 __________P___ -1 20.2524 90.8958 1 13 296
1947223N16119 1947 52 NI BB NOT_NAMED 1947-08-16 00:00:00 NR 20.5000 90.3000 main 145 129 __________O___ -1 20.5000 90.3000 1 11 291
1947223N16119 1947 52 NI BB NOT_NAMED 1947-08-16 03:00:00 NR 20.6474 89.7938 main 129 105 __________P___ -1 20.6474 89.7938 1 9 285
1947223N16119 1947 52 NI BB NOT_NAMED 1947-08-16 06:00:00 NR 20.7362 89.3377 main 102 89 __________P___ -1 20.7362 89.3377 1 8 281
1947223N16119 1947 52 NI BB NOT_NAMED 1947-08-16 09:00:00 NR 20.8070 88.9128 main 89 78 __________P___ -1 20.8070 88.9128 1 8 282
1947223N16119 1947 52 NI BB NOT_NAMED 1947-08-16 12:00:00 NR 20.9000 88.5000 main 78 67 __________O___ -1 20.9000 88.5000 1 8 287
1947223N16119 1947 52 NI BB NOT_NAMED 1947-08-16 15:00:00 NR 21.0461 88.0830 main 67 54 __________P___ -1 21.0461 88.0830 1 9 293
1947223N16119 1947 52 NI BB NOT_NAMED 1947-08-16 18:00:00 NR 21.2388 87.6597 main 54 22 __________P___ -1 21.2388 87.6597 1 9 298
1947223N16119 1947 52 NI BB NOT_NAMED 1947-08-16 21:00:00 NR 21.4620 87.2314 main 10 0 __________P___ -1 21.4620 87.2314 1 9 300
1947223N16119 1947 52 NI BB NOT_NAMED 1947-08-17 00:00:00 NR 21.7000 86.8000 main 0 __________O___ -1 21.7000 86.8000 1 9 301

Digital Typhoon Data and Search

About IBTrACS Database

This database is a web-friendly format of International Best Track Archive for Climate Stewardship (IBTrACS), a global best track data archive curated by NOAA dating back to 1842.

Updated: 2021-12-03